Terminal Aerodrome Forecast
Issued by NWS

Home | Current Version | Previous Version | Graphics & Text | Print | Product List | Glossary On
Versions: 1 2 3 4 5 6 7 8 9 10 11 12 13 14 15 16 17
000
FTUS43 KTOP 181125
TAFFOE
TAF
KFOE 181125Z 1812/1912 VRB04KT P6SM VCSH BKN100
     FM181600 21009KT P6SM SCT120
     FM182300 31007KT P6SM VCTS BKN050CB
     FM190300 31006KT P6SM SKC=

USA.gov is the U.S. government's official web portal to all federal, state and local government web resources and services.